Eko 2 — SY9957 — position and weather

sailwx.info

Track history (hours):
 
Tides and Currents Weather Stations Pressure Air Temp Water Temp Dewpoint Dewpoint Depression Visibility Wind Speed Wind Dir Waves Ship Positions

Eko 2

Last reported at 2015-Mar-02 23:33 UTC. Time now 2015-Mar-03 00:34 UTC.
Position N 37°28' E 025°19'.

Length 89 m; draft 4.4 m.

Type: Ship (hazmat cat A). MMSI: 240827000.

Date/timePositionNaut miles runAvg speedWind from/ knotsBaromVisibWave heightAir tempDewpointWater temp
2015-Mar-02 23:33N 37°28' E 025°19'0 0.0
2015-Mar-02 22:33N 37°28' E 025°19'0 0.0
2015-Mar-02 21:33N 37°28' E 025°19'0 0.0
2015-Mar-02 20:18N 37°28' E 025°19'0 0.0
2015-Mar-02 19:27N 37°28' E 025°19'0 0.0
2015-Mar-02 18:33N 37°28' E 025°19'0 0.0
2015-Mar-02 17:33N 37°28' E 025°19'3 3.1
2015-Mar-02 16:33N 37°25' E 025°17'1010.4
2015-Mar-02 15:33N 37°16' E 025°13'6 0.5
2015-Mar-02 03:32N 37°10' E 025°11'7 6.7
2015-Mar-02 02:33N 37°07' E 025°18'1210.0
2015-Mar-02 01:22N 36°55' E 025°20'10 9.7
2015-Mar-02 00:22N 36°46' E 025°25'  
2015-Feb-26 11:10N 36°59' E 025°17'6 9.3
2015-Feb-26 10:33N 37°05' E 025°18'9 8.9
2015-Feb-26 09:33N 37°13' E 025°15'1010.3
2015-Feb-26 08:33N 37°21' E 025°06'9 9.1
2015-Feb-26 07:33N 37°26' E 024°56'0 0.0
2015-Feb-26 06:29N 37°26' E 024°56'0 0.0
2015-Feb-26 05:23N 37°26' E 024°56'0 0.0
2015-Feb-26 04:17N 37°26' E 024°56'0 0.0
2015-Feb-26 03:30N 37°26' E 024°56'0 0.0
2015-Feb-26 02:30N 37°26' E 024°56'0 0.0
2015-Feb-26 01:29N 37°26' E 024°56'0 0.0
2015-Feb-26 00:29N 37°26' E 024°56'0 0.0
2015-Feb-25 23:28N 37°26' E 024°56'0 0.0
2015-Feb-25 22:30N 37°26' E 024°56'0 0.0
2015-Feb-25 21:30N 37°26' E 024°56'0 0.0
2015-Feb-25 20:24N 37°26' E 024°56'0 0.0
2015-Feb-25 19:30N 37°26' E 024°56'0 0.0
2015-Feb-25 18:30N 37°26' E 024°56'0 0.0
2015-Feb-25 17:30N 37°26' E 024°56'0 0.0
2015-Feb-25 16:26N 37°26' E 024°56'0 0.0
2015-Feb-25 15:32N 37°26' E 024°56'0 0.0
2015-Feb-25 14:28N 37°26' E 024°56'0 0.0
2015-Feb-25 13:29N 37°26' E 024°56'0 0.0
2015-Feb-25 12:29N 37°26' E 024°56'0 0.0
2015-Feb-25 11:32N 37°26' E 024°56'0 0.0
2015-Feb-25 10:29N 37°26' E 024°56'0 0.0
2015-Feb-25 09:29N 37°26' E 024°56'0 0.0
2015-Feb-25 08:29N 37°26' E 024°56'0 0.0
2015-Feb-25 07:29N 37°26' E 024°56'1 1.4
2015-Feb-25 06:33N 37°27' E 024°58'2 1.8
2015-Feb-25 05:30N 37°25' E 024°58'0 0.0
2015-Feb-25 04:30N 37°25' E 024°58'0 0.0
2015-Feb-25 03:24N 37°25' E 024°58'0 0.0
2015-Feb-25 02:31N 37°25' E 024°58'0 0.0
2015-Feb-25 01:31N 37°25' E 024°58'5 5.4
2015-Feb-25 00:33N 37°20' E 024°57'1211.3
2015-Feb-24 23:28N 37°11' E 024°46'29 0.8
2015-Feb-23 11:33N 37°39' E 024°54'1010.5
2015-Feb-23 10:33N 37°33' E 025°05'9 9.4
2015-Feb-23 09:33N 37°29' E 025°16'3 2.9
2015-Feb-23 08:29N 37°28' E 025°19'0 0.0
2015-Feb-23 07:32N 37°28' E 025°19'0 0.0
2015-Feb-23 06:32N 37°28' E 025°19'0 0.0
2015-Feb-23 05:32N 37°28' E 025°19'0 0.0
2015-Feb-23 04:32N 37°28' E 025°19'0 0.0
2015-Feb-23 03:32N 37°28' E 025°19'0 0.0
2015-Feb-23 02:26N 37°28' E 025°19'0 0.0
2015-Feb-23 01:32N 37°28' E 025°19'0 0.0
2015-Feb-23 00:33N 37°28' E 025°19'0 0.0
2015-Feb-22 23:32N 37°28' E 025°19'0 0.0
2015-Feb-22 22:32N 37°28' E 025°19'0 0.0
2015-Feb-22 21:26N 37°28' E 025°19'0 0.0
2015-Feb-22 20:32N 37°28' E 025°19'0 0.0
2015-Feb-22 19:29N 37°28' E 025°19'0 0.0
2015-Feb-22 18:32N 37°28' E 025°19'0 0.0
2015-Feb-22 17:32N 37°28' E 025°19'2 1.6
2015-Feb-22 16:33N 37°27' E 025°18'9 9.2
2015-Feb-22 15:33N 37°18' E 025°14'1110.5
2015-Feb-22 14:32N 37°09' E 025°09'3 0.6
2015-Feb-22 09:31N 37°06' E 025°08'4 0.4
2015-Feb-22 01:11N 37°09' E 025°08'710.6
2015-Feb-22 00:34N 37°16' E 025°08'1110.5
2015-Feb-21 23:33N 37°26' E 025°09'6 5.8
2015-Feb-21 22:30N 37°32' E 025°09'0 0.0
2015-Feb-21 21:33N 37°32' E 025°09'0 0.0
2015-Feb-21 20:30N 37°32' E 025°09'0 0.0
2015-Feb-21 19:33N 37°32' E 025°09'0 0.0
2015-Feb-21 18:33N 37°32' E 025°09'0 0.5
2015-Feb-21 17:33N 37°32' E 025°09'9 9.5
2015-Feb-21 16:33N 37°23' E 025°11'1110.8
2015-Feb-21 15:33N 37°13' E 025°17'1010.2
2015-Feb-21 14:33N 37°03' E 025°17'  
Track history (hours):
 
Tides and Currents Weather Stations Pressure Air Temp Water Temp Dewpoint Dewpoint Depression Visibility Wind Speed Wind Dir Waves Ship Positions

Eko 2

Last reported at 2015-Mar-02 23:33 UTC. Time now 2015-Mar-03 00:34 UTC.
Position N 37°28' E 025°19'.

Length 89 m; draft 4.4 m.

Type: Ship (hazmat cat A). MMSI: 240827000.

Date/timePositionNaut miles runAvg speedWind from/ knotsBaromVisibWave heightAir tempDewpointWater temp
2015-Mar-02 23:33N 37°28' E 025°19'0 0.0
2015-Mar-02 22:33N 37°28' E 025°19'0 0.0
2015-Mar-02 21:33N 37°28' E 025°19'0 0.0
2015-Mar-02 20:18N 37°28' E 025°19'0 0.0
2015-Mar-02 19:27N 37°28' E 025°19'0 0.0
2015-Mar-02 18:33N 37°28' E 025°19'0 0.0
2015-Mar-02 17:33N 37°28' E 025°19'3 3.1
2015-Mar-02 16:33N 37°25' E 025°17'1010.4
2015-Mar-02 15:33N 37°16' E 025°13'6 0.5
2015-Mar-02 03:32N 37°10' E 025°11'7 6.7
2015-Mar-02 02:33N 37°07' E 025°18'1210.0
2015-Mar-02 01:22N 36°55' E 025°20'10 9.7
2015-Mar-02 00:22N 36°46' E 025°25'  
2015-Feb-26 11:10N 36°59' E 025°17'6 9.3
2015-Feb-26 10:33N 37°05' E 025°18'9 8.9
2015-Feb-26 09:33N 37°13' E 025°15'1010.3
2015-Feb-26 08:33N 37°21' E 025°06'9 9.1
2015-Feb-26 07:33N 37°26' E 024°56'0 0.0
2015-Feb-26 06:29N 37°26' E 024°56'0 0.0
2015-Feb-26 05:23N 37°26' E 024°56'0 0.0
2015-Feb-26 04:17N 37°26' E 024°56'0 0.0
2015-Feb-26 03:30N 37°26' E 024°56'0 0.0
2015-Feb-26 02:30N 37°26' E 024°56'0 0.0
2015-Feb-26 01:29N 37°26' E 024°56'0 0.0
2015-Feb-26 00:29N 37°26' E 024°56'0 0.0
2015-Feb-25 23:28N 37°26' E 024°56'0 0.0
2015-Feb-25 22:30N 37°26' E 024°56'0 0.0
2015-Feb-25 21:30N 37°26' E 024°56'0 0.0
2015-Feb-25 20:24N 37°26' E 024°56'0 0.0
2015-Feb-25 19:30N 37°26' E 024°56'0 0.0
2015-Feb-25 18:30N 37°26' E 024°56'0 0.0
2015-Feb-25 17:30N 37°26' E 024°56'0 0.0
2015-Feb-25 16:26N 37°26' E 024°56'0 0.0
2015-Feb-25 15:32N 37°26' E 024°56'0 0.0
2015-Feb-25 14:28N 37°26' E 024°56'0 0.0
2015-Feb-25 13:29N 37°26' E 024°56'0 0.0
2015-Feb-25 12:29N 37°26' E 024°56'0 0.0
2015-Feb-25 11:32N 37°26' E 024°56'0 0.0
2015-Feb-25 10:29N 37°26' E 024°56'0 0.0
2015-Feb-25 09:29N 37°26' E 024°56'0 0.0
2015-Feb-25 08:29N 37°26' E 024°56'0 0.0
2015-Feb-25 07:29N 37°26' E 024°56'1 1.4
2015-Feb-25 06:33N 37°27' E 024°58'2 1.8
2015-Feb-25 05:30N 37°25' E 024°58'0 0.0
2015-Feb-25 04:30N 37°25' E 024°58'0 0.0
2015-Feb-25 03:24N 37°25' E 024°58'0 0.0
2015-Feb-25 02:31N 37°25' E 024°58'0 0.0
2015-Feb-25 01:31N 37°25' E 024°58'5 5.4
2015-Feb-25 00:33N 37°20' E 024°57'1211.3
2015-Feb-24 23:28N 37°11' E 024°46'29 0.8
2015-Feb-23 11:33N 37°39' E 024°54'1010.5
2015-Feb-23 10:33N 37°33' E 025°05'9 9.4
2015-Feb-23 09:33N 37°29' E 025°16'3 2.9
2015-Feb-23 08:29N 37°28' E 025°19'0 0.0
2015-Feb-23 07:32N 37°28' E 025°19'0 0.0
2015-Feb-23 06:32N 37°28' E 025°19'0 0.0
2015-Feb-23 05:32N 37°28' E 025°19'0 0.0
2015-Feb-23 04:32N 37°28' E 025°19'0 0.0
2015-Feb-23 03:32N 37°28' E 025°19'0 0.0
2015-Feb-23 02:26N 37°28' E 025°19'0 0.0
2015-Feb-23 01:32N 37°28' E 025°19'0 0.0
2015-Feb-23 00:33N 37°28' E 025°19'0 0.0
2015-Feb-22 23:32N 37°28' E 025°19'0 0.0
2015-Feb-22 22:32N 37°28' E 025°19'0 0.0
2015-Feb-22 21:26N 37°28' E 025°19'0 0.0
2015-Feb-22 20:32N 37°28' E 025°19'0 0.0
2015-Feb-22 19:29N 37°28' E 025°19'0 0.0
2015-Feb-22 18:32N 37°28' E 025°19'0 0.0
2015-Feb-22 17:32N 37°28' E 025°19'2 1.6
2015-Feb-22 16:33N 37°27' E 025°18'9 9.2
2015-Feb-22 15:33N 37°18' E 025°14'1110.5
2015-Feb-22 14:32N 37°09' E 025°09'3 0.6
2015-Feb-22 09:31N 37°06' E 025°08'4 0.4
2015-Feb-22 01:11N 37°09' E 025°08'710.6
2015-Feb-22 00:34N 37°16' E 025°08'1110.5
2015-Feb-21 23:33N 37°26' E 025°09'6 5.8
2015-Feb-21 22:30N 37°32' E 025°09'0 0.0
2015-Feb-21 21:33N 37°32' E 025°09'0 0.0
2015-Feb-21 20:30N 37°32' E 025°09'0 0.0
2015-Feb-21 19:33N 37°32' E 025°09'0 0.0
2015-Feb-21 18:33N 37°32' E 025°09'0 0.5
2015-Feb-21 17:33N 37°32' E 025°09'9 9.5
2015-Feb-21 16:33N 37°23' E 025°11'1110.8
2015-Feb-21 15:33N 37°13' E 025°17'1010.2
2015-Feb-21 14:33N 37°03' E 025°17'  

Dump ship's entire track history